sensor_id;sensor_type;location;lat;lon;timestamp;P1;durP1;ratioP1;P2;durP2;ratioP2
19733;SDS011;10018;51.230;7.860;2023-04-25T00:00:31;13.00;;;5.20;;
19733;SDS011;10018;51.230;7.860;2023-04-25T00:02:57;15.23;;;5.10;;
19733;SDS011;10018;51.230;7.860;2023-04-25T00:05:24;9.33;;;5.13;;
19733;SDS011;10018;51.230;7.860;2023-04-25T00:07:51;14.53;;;5.70;;
19733;SDS011;10018;51.230;7.860;2023-04-25T00:10:19;12.13;;;5.23;;
19733;SDS011;10018;51.230;7.860;2023-04-25T00:12:45;13.23;;;5.97;;
19733;SDS011;10018;51.230;7.860;2023-04-25T00:15:11;11.87;;;5.53;;
19733;SDS011;10018;51.230;7.860;2023-04-25T00:17:37;17.17;;;6.60;;
19733;SDS011;10018;51.230;7.860;2023-04-25T00:20:05;13.63;;;5.90;;
19733;SDS011;10018;51.230;7.860;2023-04-25T00:22:34;16.07;;;6.47;;
19733;SDS011;10018;51.230;7.860;2023-04-25T00:25:02;16.30;;;6.83;;
19733;SDS011;10018;51.230;7.860;2023-04-25T00:27:31;18.43;;;6.63;;
19733;SDS011;10018;51.230;7.860;2023-04-25T00:29:59;20.43;;;7.07;;
19733;SDS011;10018;51.230;7.860;2023-04-25T00:32:27;20.63;;;7.10;;
19733;SDS011;10018;51.230;7.860;2023-04-25T00:34:53;17.83;;;7.33;;
19733;SDS011;10018;51.230;7.860;2023-04-25T00:37:20;20.50;;;7.50;;
19733;SDS011;10018;51.230;7.860;2023-04-25T00:39:46;15.90;;;6.70;;
19733;SDS011;10018;51.230;7.860;2023-04-25T00:42:12;15.93;;;7.03;;
19733;SDS011;10018;51.230;7.860;2023-04-25T00:44:38;20.20;;;6.80;;
19733;SDS011;10018;51.230;7.860;2023-04-25T00:47:03;17.47;;;6.70;;
19733;SDS011;10018;51.230;7.860;2023-04-25T00:49:34;18.47;;;6.63;;
19733;SDS011;10018;51.230;7.860;2023-04-25T00:51:59;15.20;;;6.27;;
19733;SDS011;10018;51.230;7.860;2023-04-25T00:54:27;19.43;;;6.90;;
19733;SDS011;10018;51.230;7.860;2023-04-25T00:56:55;17.77;;;7.33;;
19733;SDS011;10018;51.230;7.860;2023-04-25T00:59:20;17.87;;;6.60;;
19733;SDS011;10018;51.230;7.860;2023-04-25T01:01:46;16.13;;;7.03;;
19733;SDS011;10018;51.230;7.860;2023-04-25T01:04:12;20.33;;;7.10;;
19733;SDS011;10018;51.230;7.860;2023-04-25T01:06:40;18.80;;;7.27;;
19733;SDS011;10018;51.230;7.860;2023-04-25T01:09:06;21.17;;;7.27;;
19733;SDS011;10018;51.230;7.860;2023-04-25T01:11:35;15.47;;;6.87;;
19733;SDS011;10018;51.230;7.860;2023-04-25T01:14:00;23.53;;;7.30;;
19733;SDS011;10018;51.230;7.860;2023-04-25T01:16:28;18.23;;;7.03;;
19733;SDS011;10018;51.230;7.860;2023-04-25T01:18:56;21.03;;;7.17;;
19733;SDS011;10018;51.230;7.860;2023-04-25T01:21:22;18.37;;;7.50;;
19733;SDS011;10018;51.230;7.860;2023-04-25T01:23:51;15.57;;;6.80;;
19733;SDS011;10018;51.230;7.860;2023-04-25T01:26:17;17.77;;;7.10;;
19733;SDS011;10018;51.230;7.860;2023-04-25T01:28:43;18.97;;;7.00;;
19733;SDS011;10018;51.230;7.860;2023-04-25T01:31:10;19.80;;;6.70;;
19733;SDS011;10018;51.230;7.860;2023-04-25T01:33:37;15.53;;;6.67;;
19733;SDS011;10018;51.230;7.860;2023-04-25T01:36:02;21.30;;;6.67;;
19733;SDS011;10018;51.230;7.860;2023-04-25T01:38:28;18.20;;;6.67;;
19733;SDS011;10018;51.230;7.860;2023-04-25T01:40:54;20.17;;;7.03;;
19733;SDS011;10018;51.230;7.860;2023-04-25T01:43:20;18.13;;;6.77;;
19733;SDS011;10018;51.230;7.860;2023-04-25T01:45:46;18.33;;;6.73;;
19733;SDS011;10018;51.230;7.860;2023-04-25T01:48:14;20.50;;;7.03;;
19733;SDS011;10018;51.230;7.860;2023-04-25T01:50:40;19.27;;;7.50;;
19733;SDS011;10018;51.230;7.860;2023-04-25T01:53:06;15.43;;;6.47;;
19733;SDS011;10018;51.230;7.860;2023-04-25T01:55:33;17.53;;;7.13;;
19733;SDS011;10018;51.230;7.860;2023-04-25T01:58:02;22.03;;;6.87;;
19733;SDS011;10018;51.230;7.860;2023-04-25T02:00:28;21.13;;;7.50;;
19733;SDS011;10018;51.230;7.860;2023-04-25T02:02:59;19.67;;;6.93;;
19733;SDS011;10018;51.230;7.860;2023-04-25T02:05:25;16.70;;;7.33;;
19733;SDS011;10018;51.230;7.860;2023-04-25T02:07:51;20.63;;;7.30;;
19733;SDS011;10018;51.230;7.860;2023-04-25T02:10:16;19.03;;;7.03;;
19733;SDS011;10018;51.230;7.860;2023-04-25T02:12:42;17.90;;;7.17;;
19733;SDS011;10018;51.230;7.860;2023-04-25T02:15:10;20.07;;;7.13;;
19733;SDS011;10018;51.230;7.860;2023-04-25T02:17:38;18.63;;;7.30;;
19733;SDS011;10018;51.230;7.860;2023-04-25T02:20:04;16.10;;;6.97;;
19733;SDS011;10018;51.230;7.860;2023-04-25T02:22:30;18.10;;;7.43;;
19733;SDS011;10018;51.230;7.860;2023-04-25T02:24:58;15.37;;;7.37;;
19733;SDS011;10018;51.230;7.860;2023-04-25T02:27:27;20.57;;;7.83;;
19733;SDS011;10018;51.230;7.860;2023-04-25T02:29:52;20.40;;;8.00;;
19733;SDS011;10018;51.230;7.860;2023-04-25T02:32:18;19.43;;;8.10;;
19733;SDS011;10018;51.230;7.860;2023-04-25T02:34:43;15.27;;;8.23;;
19733;SDS011;10018;51.230;7.860;2023-04-25T02:37:09;17.37;;;8.83;;
19733;SDS011;10018;51.230;7.860;2023-04-25T02:39:37;17.17;;;9.27;;
19733;SDS011;10018;51.230;7.860;2023-04-25T02:42:05;17.93;;;8.10;;
19733;SDS011;10018;51.230;7.860;2023-04-25T02:44:30;18.67;;;9.10;;
19733;SDS011;10018;51.230;7.860;2023-04-25T02:46:56;18.67;;;9.10;;
19733;SDS011;10018;51.230;7.860;2023-04-25T02:49:21;20.77;;;9.00;;
19733;SDS011;10018;51.230;7.860;2023-04-25T02:51:47;19.77;;;9.30;;
19733;SDS011;10018;51.230;7.860;2023-04-25T02:54:15;20.50;;;9.13;;
19733;SDS011;10018;51.230;7.860;2023-04-25T02:56:40;20.80;;;9.17;;
19733;SDS011;10018;51.230;7.860;2023-04-25T02:59:06;16.90;;;8.47;;
19733;SDS011;10018;51.230;7.860;2023-04-25T03:01:31;15.77;;;7.93;;
19733;SDS011;10018;51.230;7.860;2023-04-25T03:03:57;21.33;;;9.10;;
19733;SDS011;10018;51.230;7.860;2023-04-25T03:06:22;19.87;;;9.67;;
19733;SDS011;10018;51.230;7.860;2023-04-25T03:08:48;23.73;;;10.47;;
19733;SDS011;10018;51.230;7.860;2023-04-25T03:11:16;22.67;;;11.00;;
19733;SDS011;10018;51.230;7.860;2023-04-25T03:13:42;24.57;;;12.67;;
19733;SDS011;10018;51.230;7.860;2023-04-25T03:16:10;24.83;;;11.53;;
19733;SDS011;10018;51.230;7.860;2023-04-25T03:18:35;20.50;;;11.90;;
19733;SDS011;10018;51.230;7.860;2023-04-25T03:21:10;20.73;;;11.60;;
19733;SDS011;10018;51.230;7.860;2023-04-25T03:23:35;21.77;;;12.83;;
19733;SDS011;10018;51.230;7.860;2023-04-25T03:26:01;25.60;;;13.13;;
19733;SDS011;10018;51.230;7.860;2023-04-25T03:28:27;26.20;;;12.73;;
19733;SDS011;10018;51.230;7.860;2023-04-25T03:30:53;22.67;;;12.40;;
19733;SDS011;10018;51.230;7.860;2023-04-25T03:33:19;25.80;;;12.93;;
19733;SDS011;10018;51.230;7.860;2023-04-25T03:35:44;23.77;;;12.80;;
19733;SDS011;10018;51.230;7.860;2023-04-25T03:38:12;25.43;;;12.50;;
19733;SDS011;10018;51.230;7.860;2023-04-25T03:40:40;27.43;;;12.53;;
19733;SDS011;10018;51.230;7.860;2023-04-25T03:43:06;29.00;;;13.50;;
19733;SDS011;10018;51.230;7.860;2023-04-25T03:45:32;26.30;;;13.20;;
19733;SDS011;10018;51.230;7.860;2023-04-25T03:48:00;26.97;;;13.37;;
19733;SDS011;10018;51.230;7.860;2023-04-25T03:50:25;24.03;;;12.10;;
19733;SDS011;10018;51.230;7.860;2023-04-25T03:52:51;24.47;;;12.97;;
19733;SDS011;10018;51.230;7.860;2023-04-25T03:55:19;22.43;;;11.33;;
19733;SDS011;10018;51.230;7.860;2023-04-25T03:57:45;18.83;;;11.47;;
19733;SDS011;10018;51.230;7.860;2023-04-25T04:00:11;20.27;;;11.50;;
19733;SDS011;10018;51.230;7.860;2023-04-25T04:02:37;17.47;;;10.43;;
19733;SDS011;10018;51.230;7.860;2023-04-25T04:05:03;22.50;;;11.60;;
19733;SDS011;10018;51.230;7.860;2023-04-25T04:07:32;22.47;;;12.40;;
19733;SDS011;10018;51.230;7.860;2023-04-25T04:10:07;20.70;;;11.37;;
19733;SDS011;10018;51.230;7.860;2023-04-25T04:12:33;24.93;;;11.37;;
19733;SDS011;10018;51.230;7.860;2023-04-25T04:14:58;25.13;;;12.17;;
19733;SDS011;10018;51.230;7.860;2023-04-25T04:17:24;23.70;;;11.77;;
19733;SDS011;10018;51.230;7.860;2023-04-25T04:19:50;20.57;;;11.70;;
19733;SDS011;10018;51.230;7.860;2023-04-25T04:22:17;21.33;;;10.53;;
19733;SDS011;10018;51.230;7.860;2023-04-25T04:24:45;19.63;;;9.37;;
19733;SDS011;10018;51.230;7.860;2023-04-25T04:27:11;14.43;;;6.00;;
19733;SDS011;10018;51.230;7.860;2023-04-25T04:29:37;10.03;;;6.13;;
19733;SDS011;10018;51.230;7.860;2023-04-25T04:32:03;13.07;;;6.33;;
19733;SDS011;10018;51.230;7.860;2023-04-25T04:34:29;10.37;;;5.90;;
19733;SDS011;10018;51.230;7.860;2023-04-25T04:36:56;12.13;;;5.63;;
19733;SDS011;10018;51.230;7.860;2023-04-25T04:39:26;11.67;;;5.77;;
19733;SDS011;10018;51.230;7.860;2023-04-25T04:41:54;10.87;;;6.00;;
19733;SDS011;10018;51.230;7.860;2023-04-25T04:44:20;10.07;;;5.30;;
19733;SDS011;10018;51.230;7.860;2023-04-25T04:46:47;11.27;;;5.70;;
19733;SDS011;10018;51.230;7.860;2023-04-25T04:49:13;11.10;;;5.77;;
19733;SDS011;10018;51.230;7.860;2023-04-25T04:51:39;10.53;;;6.10;;
19733;SDS011;10018;51.230;7.860;2023-04-25T04:54:06;14.53;;;6.23;;
19733;SDS011;10018;51.230;7.860;2023-04-25T04:56:32;11.37;;;6.70;;
19733;SDS011;10018;51.230;7.860;2023-04-25T04:58:58;11.83;;;7.57;;
19733;SDS011;10018;51.230;7.860;2023-04-25T05:01:24;11.57;;;7.33;;
19733;SDS011;10018;51.230;7.860;2023-04-25T05:03:50;11.03;;;6.90;;
19733;SDS011;10018;51.230;7.860;2023-04-25T05:06:16;13.57;;;6.60;;
19733;SDS011;10018;51.230;7.860;2023-04-25T05:08:45;11.63;;;6.90;;
19733;SDS011;10018;51.230;7.860;2023-04-25T05:11:11;12.77;;;7.00;;
19733;SDS011;10018;51.230;7.860;2023-04-25T05:13:36;13.57;;;7.40;;
19733;SDS011;10018;51.230;7.860;2023-04-25T05:16:02;16.77;;;7.37;;
19733;SDS011;10018;51.230;7.860;2023-04-25T05:18:28;14.50;;;8.13;;
19733;SDS011;10018;51.230;7.860;2023-04-25T05:20:54;14.83;;;7.47;;
19733;SDS011;10018;51.230;7.860;2023-04-25T05:23:20;14.60;;;8.30;;
19733;SDS011;10018;51.230;7.860;2023-04-25T05:25:45;15.17;;;7.50;;
19733;SDS011;10018;51.230;7.860;2023-04-25T05:28:12;14.67;;;7.63;;
19733;SDS011;10018;51.230;7.860;2023-04-25T05:30:38;13.63;;;7.50;;
19733;SDS011;10018;51.230;7.860;2023-04-25T05:33:04;17.03;;;7.63;;
19733;SDS011;10018;51.230;7.860;2023-04-25T05:35:29;18.27;;;7.97;;
19733;SDS011;10018;51.230;7.860;2023-04-25T05:37:55;17.73;;;6.97;;
19733;SDS011;10018;51.230;7.860;2023-04-25T05:40:23;13.60;;;5.90;;
19733;SDS011;10018;51.230;7.860;2023-04-25T05:42:49;14.00;;;5.87;;
19733;SDS011;10018;51.230;7.860;2023-04-25T05:45:15;13.80;;;5.77;;
19733;SDS011;10018;51.230;7.860;2023-04-25T05:47:42;9.13;;;4.50;;
19733;SDS011;10018;51.230;7.860;2023-04-25T05:50:08;11.90;;;4.77;;
19733;SDS011;10018;51.230;7.860;2023-04-25T05:52:35;9.00;;;4.53;;
19733;SDS011;10018;51.230;7.860;2023-04-25T05:55:01;10.03;;;4.90;;
19733;SDS011;10018;51.230;7.860;2023-04-25T05:57:27;10.23;;;4.47;;
19733;SDS011;10018;51.230;7.860;2023-04-25T05:59:53;8.60;;;4.00;;
19733;SDS011;10018;51.230;7.860;2023-04-25T06:02:22;8.77;;;4.37;;
19733;SDS011;10018;51.230;7.860;2023-04-25T06:04:49;9.77;;;4.10;;
19733;SDS011;10018;51.230;7.860;2023-04-25T06:07:17;7.57;;;3.63;;
19733;SDS011;10018;51.230;7.860;2023-04-25T06:09:45;11.23;;;4.13;;
19733;SDS011;10018;51.230;7.860;2023-04-25T06:12:11;9.07;;;3.83;;
19733;SDS011;10018;51.230;7.860;2023-04-25T06:14:37;10.70;;;3.93;;
19733;SDS011;10018;51.230;7.860;2023-04-25T06:17:05;10.57;;;4.03;;
19733;SDS011;10018;51.230;7.860;2023-04-25T06:19:34;9.10;;;3.57;;
19733;SDS011;10018;51.230;7.860;2023-04-25T06:22:00;9.80;;;4.53;;
19733;SDS011;10018;51.230;7.860;2023-04-25T06:24:26;9.63;;;4.20;;
19733;SDS011;10018;51.230;7.860;2023-04-25T06:26:51;14.67;;;4.80;;
19733;SDS011;10018;51.230;7.860;2023-04-25T06:29:17;9.10;;;3.83;;
19733;SDS011;10018;51.230;7.860;2023-04-25T06:31:46;14.07;;;4.33;;
19733;SDS011;10018;51.230;7.860;2023-04-25T06:34:11;18.53;;;5.13;;
19733;SDS011;10018;51.230;7.860;2023-04-25T06:36:37;14.77;;;4.30;;
19733;SDS011;10018;51.230;7.860;2023-04-25T06:39:05;19.23;;;4.80;;
19733;SDS011;10018;51.230;7.860;2023-04-25T06:41:31;15.77;;;5.20;;
19733;SDS011;10018;51.230;7.860;2023-04-25T06:43:56;15.47;;;4.67;;
19733;SDS011;10018;51.230;7.860;2023-04-25T06:46:22;16.57;;;4.73;;
19733;SDS011;10018;51.230;7.860;2023-04-25T06:48:47;13.03;;;4.73;;
19733;SDS011;10018;51.230;7.860;2023-04-25T06:51:13;11.83;;;4.73;;
19733;SDS011;10018;51.230;7.860;2023-04-25T06:53:39;16.00;;;4.53;;
19733;SDS011;10018;51.230;7.860;2023-04-25T06:56:07;13.30;;;5.10;;
19733;SDS011;10018;51.230;7.860;2023-04-25T06:58:32;20.07;;;5.40;;
19733;SDS011;10018;51.230;7.860;2023-04-25T07:01:00;18.37;;;5.20;;
19733;SDS011;10018;51.230;7.860;2023-04-25T07:03:26;17.43;;;4.67;;
19733;SDS011;10018;51.230;7.860;2023-04-25T07:05:51;19.73;;;4.77;;
19733;SDS011;10018;51.230;7.860;2023-04-25T07:08:22;16.23;;;4.90;;
19733;SDS011;10018;51.230;7.860;2023-04-25T07:10:52;18.33;;;5.93;;
19733;SDS011;10018;51.230;7.860;2023-04-25T07:13:20;11.47;;;4.10;;
19733;SDS011;10018;51.230;7.860;2023-04-25T07:15:46;23.73;;;5.30;;
19733;SDS011;10018;51.230;7.860;2023-04-25T07:18:13;18.30;;;4.90;;
19733;SDS011;10018;51.230;7.860;2023-04-25T07:20:38;21.23;;;5.23;;
19733;SDS011;10018;51.230;7.860;2023-04-25T07:23:04;13.47;;;5.33;;
19733;SDS011;10018;51.230;7.860;2023-04-25T07:25:30;18.07;;;5.63;;
19733;SDS011;10018;51.230;7.860;2023-04-25T07:27:56;24.83;;;5.33;;
19733;SDS011;10018;51.230;7.860;2023-04-25T07:30:24;20.67;;;5.23;;
19733;SDS011;10018;51.230;7.860;2023-04-25T07:32:49;16.97;;;5.40;;
19733;SDS011;10018;51.230;7.860;2023-04-25T07:35:16;15.53;;;4.43;;
19733;SDS011;10018;51.230;7.860;2023-04-25T07:37:46;16.93;;;4.60;;
19733;SDS011;10018;51.230;7.860;2023-04-25T07:40:12;14.20;;;4.87;;
19733;SDS011;10018;51.230;7.860;2023-04-25T07:42:38;18.93;;;5.10;;
19733;SDS011;10018;51.230;7.860;2023-04-25T07:45:06;17.80;;;5.23;;
19733;SDS011;10018;51.230;7.860;2023-04-25T07:47:34;15.93;;;5.57;;
19733;SDS011;10018;51.230;7.860;2023-04-25T07:50:01;19.50;;;6.20;;
19733;SDS011;10018;51.230;7.860;2023-04-25T07:52:31;12.13;;;4.60;;
19733;SDS011;10018;51.230;7.860;2023-04-25T07:54:58;18.30;;;5.17;;
19733;SDS011;10018;51.230;7.860;2023-04-25T07:57:27;14.33;;;5.53;;
19733;SDS011;10018;51.230;7.860;2023-04-25T07:59:53;13.93;;;5.03;;
19733;SDS011;10018;51.230;7.860;2023-04-25T08:02:21;12.87;;;5.17;;
19733;SDS011;10018;51.230;7.860;2023-04-25T08:04:47;21.73;;;6.17;;
19733;SDS011;10018;51.230;7.860;2023-04-25T08:07:14;15.50;;;5.50;;
19733;SDS011;10018;51.230;7.860;2023-04-25T08:09:40;19.37;;;5.23;;
19733;SDS011;10018;51.230;7.860;2023-04-25T08:12:05;14.80;;;5.50;;
19733;SDS011;10018;51.230;7.860;2023-04-25T08:14:31;15.23;;;5.40;;
19733;SDS011;10018;51.230;7.860;2023-04-25T08:17:01;13.70;;;5.27;;
19733;SDS011;10018;51.230;7.860;2023-04-25T08:19:28;15.93;;;5.73;;
19733;SDS011;10018;51.230;7.860;2023-04-25T08:21:54;14.57;;;4.50;;
19733;SDS011;10018;51.230;7.860;2023-04-25T08:24:21;18.33;;;5.37;;
19733;SDS011;10018;51.230;7.860;2023-04-25T08:26:47;12.23;;;5.17;;
19733;SDS011;10018;51.230;7.860;2023-04-25T08:29:12;10.43;;;4.17;;
19733;SDS011;10018;51.230;7.860;2023-04-25T08:31:38;13.30;;;4.70;;
19733;SDS011;10018;51.230;7.860;2023-04-25T08:34:03;15.47;;;4.43;;
19733;SDS011;10018;51.230;7.860;2023-04-25T08:36:29;14.30;;;3.87;;
19733;SDS011;10018;51.230;7.860;2023-04-25T08:38:56;14.10;;;3.90;;
19733;SDS011;10018;51.230;7.860;2023-04-25T08:41:26;19.10;;;5.00;;
19733;SDS011;10018;51.230;7.860;2023-04-25T08:43:52;14.67;;;4.10;;
19733;SDS011;10018;51.230;7.860;2023-04-25T08:46:20;19.03;;;4.77;;
19733;SDS011;10018;51.230;7.860;2023-04-25T08:48:46;18.53;;;6.10;;
19733;SDS011;10018;51.230;7.860;2023-04-25T08:51:15;16.97;;;4.97;;
19733;SDS011;10018;51.230;7.860;2023-04-25T08:53:47;15.90;;;4.57;;
19733;SDS011;10018;51.230;7.860;2023-04-25T08:56:16;12.70;;;4.47;;
19733;SDS011;10018;51.230;7.860;2023-04-25T08:58:50;12.60;;;3.73;;
19733;SDS011;10018;51.230;7.860;2023-04-25T09:01:16;19.70;;;4.47;;
19733;SDS011;10018;51.230;7.860;2023-04-25T09:03:46;13.03;;;4.40;;
19733;SDS011;10018;51.230;7.860;2023-04-25T09:06:13;17.10;;;4.63;;
19733;SDS011;10018;51.230;7.860;2023-04-25T09:08:41;14.67;;;4.53;;
19733;SDS011;10018;51.230;7.860;2023-04-25T09:11:06;16.07;;;3.90;;
19733;SDS011;10018;51.230;7.860;2023-04-25T09:13:32;14.77;;;4.10;;
19733;SDS011;10018;51.230;7.860;2023-04-25T09:16:00;17.80;;;4.63;;
19733;SDS011;10018;51.230;7.860;2023-04-25T09:18:27;15.27;;;4.10;;
19733;SDS011;10018;51.230;7.860;2023-04-25T09:20:55;13.37;;;4.20;;
19733;SDS011;10018;51.230;7.860;2023-04-25T09:23:30;15.57;;;5.00;;
19733;SDS011;10018;51.230;7.860;2023-04-25T09:26:03;17.83;;;5.40;;
19733;SDS011;10018;51.230;7.860;2023-04-25T09:28:31;15.63;;;4.20;;
19733;SDS011;10018;51.230;7.860;2023-04-25T09:30:57;13.50;;;4.17;;
19733;SDS011;10018;51.230;7.860;2023-04-25T09:33:29;19.27;;;4.50;;
19733;SDS011;10018;51.230;7.860;2023-04-25T09:38:39;15.83;;;6.53;;
19733;SDS011;10018;51.230;7.860;2023-04-25T09:41:07;17.87;;;5.27;;
19733;SDS011;10018;51.230;7.860;2023-04-25T09:43:35;10.93;;;3.87;;
19733;SDS011;10018;51.230;7.860;2023-04-25T09:46:02;14.07;;;4.53;;
19733;SDS011;10018;51.230;7.860;2023-04-25T09:48:32;12.37;;;4.40;;
19733;SDS011;10018;51.230;7.860;2023-04-25T09:51:07;14.17;;;4.33;;
19733;SDS011;10018;51.230;7.860;2023-04-25T09:53:33;19.50;;;4.20;;
19733;SDS011;10018;51.230;7.860;2023-04-25T09:56:00;13.43;;;4.17;;
19733;SDS011;10018;51.230;7.860;2023-04-25T09:58:32;13.77;;;4.60;;
19733;SDS011;10018;51.230;7.860;2023-04-25T10:00:59;13.10;;;3.27;;
19733;SDS011;10018;51.230;7.860;2023-04-25T10:03:26;10.67;;;3.70;;
19733;SDS011;10018;51.230;7.860;2023-04-25T10:05:56;13.93;;;3.87;;
19733;SDS011;10018;51.230;7.860;2023-04-25T10:08:24;14.90;;;3.93;;
19733;SDS011;10018;51.230;7.860;2023-04-25T10:10:51;10.57;;;3.87;;
19733;SDS011;10018;51.230;7.860;2023-04-25T10:13:20;13.63;;;3.50;;
19733;SDS011;10018;51.230;7.860;2023-04-25T10:15:46;13.50;;;3.50;;
19733;SDS011;10018;51.230;7.860;2023-04-25T10:18:12;11.37;;;3.43;;
19733;SDS011;10018;51.230;7.860;2023-04-25T10:20:38;13.10;;;3.90;;
19733;SDS011;10018;51.230;7.860;2023-04-25T10:23:06;10.53;;;3.80;;
19733;SDS011;10018;51.230;7.860;2023-04-25T10:25:38;13.97;;;4.53;;
19733;SDS011;10018;51.230;7.860;2023-04-25T10:28:05;13.87;;;4.30;;
19733;SDS011;10018;51.230;7.860;2023-04-25T10:30:30;7.90;;;2.67;;
19733;SDS011;10018;51.230;7.860;2023-04-25T10:32:59;7.07;;;2.20;;
19733;SDS011;10018;51.230;7.860;2023-04-25T10:35:25;10.70;;;2.27;;
19733;SDS011;10018;51.230;7.860;2023-04-25T10:40:31;13.63;;;2.73;;
19733;SDS011;10018;51.230;7.860;2023-04-25T10:46:18;11.20;;;2.40;;
19733;SDS011;10018;51.230;7.860;2023-04-25T10:48:51;9.60;;;2.47;;
19733;SDS011;10018;51.230;7.860;2023-04-25T10:51:22;12.33;;;3.00;;
19733;SDS011;10018;51.230;7.860;2023-04-25T10:56:41;8.07;;;1.97;;
19733;SDS011;10018;51.230;7.860;2023-04-25T11:04:29;6.23;;;2.20;;
19733;SDS011;10018;51.230;7.860;2023-04-25T11:09:28;7.23;;;2.37;;
19733;SDS011;10018;51.230;7.860;2023-04-25T11:11:55;13.83;;;3.10;;
19733;SDS011;10018;51.230;7.860;2023-04-25T11:14:22;11.73;;;3.07;;
19733;SDS011;10018;51.230;7.860;2023-04-25T11:16:52;9.93;;;3.23;;
19733;SDS011;10018;51.230;7.860;2023-04-25T11:19:20;9.20;;;2.80;;
19733;SDS011;10018;51.230;7.860;2023-04-25T11:21:45;10.10;;;3.10;;
19733;SDS011;10018;51.230;7.860;2023-04-25T11:24:13;8.47;;;2.80;;
19733;SDS011;10018;51.230;7.860;2023-04-25T11:26:42;12.20;;;2.63;;
19733;SDS011;10018;51.230;7.860;2023-04-25T11:29:11;10.37;;;2.70;;
19733;SDS011;10018;51.230;7.860;2023-04-25T11:31:37;9.70;;;2.60;;
19733;SDS011;10018;51.230;7.860;2023-04-25T11:34:05;8.23;;;2.63;;
19733;SDS011;10018;51.230;7.860;2023-04-25T11:36:30;8.20;;;2.20;;
19733;SDS011;10018;51.230;7.860;2023-04-25T11:38:58;8.77;;;2.40;;
19733;SDS011;10018;51.230;7.860;2023-04-25T11:41:24;7.97;;;3.10;;
19733;SDS011;10018;51.230;7.860;2023-04-25T11:43:50;7.37;;;2.63;;
19733;SDS011;10018;51.230;7.860;2023-04-25T11:46:16;6.93;;;2.07;;
19733;SDS011;10018;51.230;7.860;2023-04-25T11:48:44;8.13;;;2.10;;
19733;SDS011;10018;51.230;7.860;2023-04-25T11:51:11;7.60;;;2.13;;
19733;SDS011;10018;51.230;7.860;2023-04-25T11:53:38;6.43;;;1.63;;
19733;SDS011;10018;51.230;7.860;2023-04-25T11:56:09;5.10;;;1.63;;
19733;SDS011;10018;51.230;7.860;2023-04-25T11:58:55;6.63;;;1.90;;
19733;SDS011;10018;51.230;7.860;2023-04-25T12:01:28;10.20;;;2.13;;
19733;SDS011;10018;51.230;7.860;2023-04-25T12:03:56;5.13;;;1.80;;
19733;SDS011;10018;51.230;7.860;2023-04-25T12:06:25;6.50;;;1.73;;
19733;SDS011;10018;51.230;7.860;2023-04-25T12:09:02;6.47;;;2.23;;
19733;SDS011;10018;51.230;7.860;2023-04-25T12:11:32;7.10;;;1.93;;
19733;SDS011;10018;51.230;7.860;2023-04-25T12:14:03;6.50;;;1.97;;
19733;SDS011;10018;51.230;7.860;2023-04-25T12:16:44;9.73;;;1.90;;
19733;SDS011;10018;51.230;7.860;2023-04-25T12:19:14;8.00;;;2.17;;
19733;SDS011;10018;51.230;7.860;2023-04-25T12:21:41;5.10;;;2.13;;
19733;SDS011;10018;51.230;7.860;2023-04-25T12:24:17;7.90;;;2.10;;
19733;SDS011;10018;51.230;7.860;2023-04-25T12:26:51;6.80;;;2.00;;
19733;SDS011;10018;51.230;7.860;2023-04-25T12:29:25;10.53;;;2.77;;
19733;SDS011;10018;51.230;7.860;2023-04-25T12:31:52;5.87;;;1.77;;
19733;SDS011;10018;51.230;7.860;2023-04-25T12:34:21;9.70;;;2.10;;
19733;SDS011;10018;51.230;7.860;2023-04-25T12:36:50;12.03;;;1.93;;
19733;SDS011;10018;51.230;7.860;2023-04-25T12:39:23;9.27;;;2.10;;
19733;SDS011;10018;51.230;7.860;2023-04-25T12:41:52;7.43;;;1.90;;
19733;SDS011;10018;51.230;7.860;2023-04-25T12:44:21;7.40;;;2.10;;
19733;SDS011;10018;51.230;7.860;2023-04-25T12:46:47;8.67;;;1.80;;
19733;SDS011;10018;51.230;7.860;2023-04-25T12:49:13;6.60;;;1.83;;
19733;SDS011;10018;51.230;7.860;2023-04-25T12:51:39;8.23;;;2.17;;
19733;SDS011;10018;51.230;7.860;2023-04-25T12:54:06;9.33;;;2.33;;
19733;SDS011;10018;51.230;7.860;2023-04-25T12:56:33;8.37;;;2.27;;
19733;SDS011;10018;51.230;7.860;2023-04-25T12:58:59;9.00;;;2.10;;
19733;SDS011;10018;51.230;7.860;2023-04-25T13:01:25;4.03;;;1.40;;
19733;SDS011;10018;51.230;7.860;2023-04-25T13:03:51;5.13;;;1.40;;
19733;SDS011;10018;51.230;7.860;2023-04-25T13:06:17;6.57;;;1.90;;
19733;SDS011;10018;51.230;7.860;2023-04-25T13:08:44;7.40;;;1.70;;
19733;SDS011;10018;51.230;7.860;2023-04-25T13:11:10;4.70;;;1.60;;
19733;SDS011;10018;51.230;7.860;2023-04-25T13:13:36;5.03;;;1.50;;
19733;SDS011;10018;51.230;7.860;2023-04-25T13:16:02;7.17;;;1.50;;
19733;SDS011;10018;51.230;7.860;2023-04-25T13:18:29;6.13;;;1.60;;
19733;SDS011;10018;51.230;7.860;2023-04-25T13:20:55;5.90;;;1.40;;
19733;SDS011;10018;51.230;7.860;2023-04-25T13:23:21;6.23;;;1.70;;
19733;SDS011;10018;51.230;7.860;2023-04-25T13:25:48;5.43;;;1.80;;
19733;SDS011;10018;51.230;7.860;2023-04-25T13:28:14;5.47;;;1.50;;
19733;SDS011;10018;51.230;7.860;2023-04-25T13:30:40;4.30;;;1.47;;
19733;SDS011;10018;51.230;7.860;2023-04-25T13:33:06;4.87;;;1.80;;
19733;SDS011;10018;51.230;7.860;2023-04-25T13:35:32;4.10;;;1.37;;
19733;SDS011;10018;51.230;7.860;2023-04-25T13:37:59;4.50;;;1.40;;
19733;SDS011;10018;51.230;7.860;2023-04-25T13:40:25;8.63;;;2.30;;
19733;SDS011;10018;51.230;7.860;2023-04-25T13:42:52;10.20;;;2.00;;
19733;SDS011;10018;51.230;7.860;2023-04-25T13:45:18;6.37;;;1.80;;
19733;SDS011;10018;51.230;7.860;2023-04-25T13:47:44;5.40;;;1.67;;
19733;SDS011;10018;51.230;7.860;2023-04-25T13:50:10;5.17;;;1.50;;
19733;SDS011;10018;51.230;7.860;2023-04-25T13:52:36;6.53;;;1.60;;
19733;SDS011;10018;51.230;7.860;2023-04-25T13:55:01;4.33;;;1.60;;
19733;SDS011;10018;51.230;7.860;2023-04-25T13:57:31;3.17;;;1.30;;
19733;SDS011;10018;51.230;7.860;2023-04-25T13:59:59;4.67;;;1.50;;
19733;SDS011;10018;51.230;7.860;2023-04-25T14:02:29;6.07;;;1.40;;
19733;SDS011;10018;51.230;7.860;2023-04-25T14:04:55;4.90;;;1.50;;
19733;SDS011;10018;51.230;7.860;2023-04-25T14:07:23;6.73;;;1.40;;
19733;SDS011;10018;51.230;7.860;2023-04-25T14:09:49;5.50;;;1.80;;
19733;SDS011;10018;51.230;7.860;2023-04-25T14:12:15;6.73;;;1.40;;
19733;SDS011;10018;51.230;7.860;2023-04-25T14:14:41;2.67;;;1.17;;
19733;SDS011;10018;51.230;7.860;2023-04-25T14:17:09;4.37;;;1.40;;
19733;SDS011;10018;51.230;7.860;2023-04-25T14:19:35;6.63;;;1.30;;
19733;SDS011;10018;51.230;7.860;2023-04-25T14:22:02;4.53;;;1.40;;
19733;SDS011;10018;51.230;7.860;2023-04-25T14:24:28;4.97;;;1.30;;
19733;SDS011;10018;51.230;7.860;2023-04-25T14:26:53;7.70;;;1.30;;
19733;SDS011;10018;51.230;7.860;2023-04-25T14:29:19;4.67;;;1.20;;
19733;SDS011;10018;51.230;7.860;2023-04-25T14:31:44;6.00;;;1.60;;
19733;SDS011;10018;51.230;7.860;2023-04-25T14:34:10;7.57;;;1.40;;
19733;SDS011;10018;51.230;7.860;2023-04-25T14:36:36;4.53;;;1.40;;
19733;SDS011;10018;51.230;7.860;2023-04-25T14:39:02;4.30;;;1.30;;
19733;SDS011;10018;51.230;7.860;2023-04-25T14:41:28;6.10;;;1.30;;
19733;SDS011;10018;51.230;7.860;2023-04-25T14:43:53;4.23;;;1.43;;
19733;SDS011;10018;51.230;7.860;2023-04-25T14:46:19;5.13;;;1.30;;
19733;SDS011;10018;51.230;7.860;2023-04-25T14:48:49;7.97;;;2.07;;
19733;SDS011;10018;51.230;7.860;2023-04-25T14:51:15;7.33;;;1.30;;
19733;SDS011;10018;51.230;7.860;2023-04-25T14:53:40;7.03;;;2.20;;
19733;SDS011;10018;51.230;7.860;2023-04-25T14:56:06;4.40;;;1.60;;